createdAt,value
2018-12-17T00:02:11.995Z,63.87
2018-12-17T00:04:41.959Z,62.80
2018-12-17T00:07:11.951Z,65.70
2018-12-17T00:09:39.930Z,63.90
2018-12-17T00:12:07.903Z,62.43
2018-12-17T00:14:35.819Z,65.55
2018-12-17T00:17:05.213Z,66.47
2018-12-17T00:19:33.414Z,68.65
2018-12-17T00:22:01.376Z,57.43
2018-12-17T00:24:29.326Z,69.15
2018-12-17T00:26:57.269Z,64.20
2018-12-17T00:29:25.231Z,65.00
2018-12-17T00:31:53.148Z,68.42
2018-12-17T00:34:21.048Z,61.88
2018-12-17T00:36:48.992Z,61.40
2018-12-17T00:39:16.898Z,70.65
2018-12-17T00:41:44.834Z,64.45
2018-12-17T00:44:12.780Z,66.02
2018-12-17T00:46:40.702Z,67.47
2018-12-17T00:49:08.632Z,65.80
2018-12-17T00:51:37.021Z,59.45
2018-12-17T00:54:04.946Z,67.25
2018-12-17T00:56:32.866Z,53.13
2018-12-17T00:59:00.828Z,58.40
2018-12-17T01:01:28.767Z,59.45
2018-12-17T01:03:56.820Z,58.42
2018-12-17T01:06:24.785Z,64.58
2018-12-17T01:08:52.715Z,58.35
2018-12-17T01:11:20.608Z,53.83
2018-12-17T01:13:48.836Z,62.67
2018-12-17T01:16:16.726Z,66.02
2018-12-17T01:18:44.688Z,53.23
2018-12-17T01:21:12.651Z,56.08
2018-12-17T01:23:40.771Z,57.33
2018-12-17T01:26:09.811Z,53.63
2018-12-17T01:28:38.017Z,59.50
2018-12-17T01:31:05.954Z,54.38
2018-12-17T01:33:33.896Z,53.42
2018-12-17T01:36:01.849Z,52.08
2018-12-17T01:38:29.771Z,46.15
2018-12-17T01:40:57.686Z,58.75
2018-12-17T01:43:26.173Z,51.25
2018-12-17T01:45:54.105Z,51.23
2018-12-17T01:48:22.022Z,55.63
2018-12-17T01:50:49.969Z,46.13
2018-12-17T01:53:17.897Z,46.75
2018-12-17T01:55:45.792Z,44.90
2018-12-17T01:58:13.684Z,58.00
2018-12-17T02:00:41.605Z,52.60
2018-12-17T02:03:09.509Z,55.15
2018-12-17T02:05:37.595Z,58.00
2018-12-17T02:08:05.549Z,45.90
2018-12-17T02:10:33.610Z,48.05
2018-12-17T02:13:01.549Z,49.40
2018-12-17T02:15:29.474Z,54.05
2018-12-17T02:17:57.402Z,48.33
2018-12-17T02:20:25.350Z,44.25
2018-12-17T02:22:53.238Z,60.43
2018-12-17T02:25:21.164Z,51.55
2018-12-17T02:27:49.113Z,51.45
2018-12-17T02:30:17.046Z,52.80
2018-12-17T02:32:44.992Z,47.65
2018-12-17T02:35:13.036Z,52.83
2018-12-17T02:37:40.930Z,45.33
2018-12-17T02:40:10.174Z,47.95
2018-12-17T02:42:38.742Z,50.80
2018-12-17T02:45:06.747Z,49.88
2018-12-17T02:47:34.650Z,49.50
2018-12-17T02:50:02.726Z,48.50
2018-12-17T02:52:30.803Z,42.33
2018-12-17T02:54:59.882Z,46.28
2018-12-17T02:57:28.019Z,43.92
2018-12-17T02:59:56.003Z,55.40
2018-12-17T03:02:24.033Z,50.88
2018-12-17T03:04:52.682Z,49.88
2018-12-17T03:07:20.611Z,51.63
2018-12-17T03:09:48.515Z,43.65
2018-12-17T03:12:16.474Z,45.15
2018-12-17T03:14:44.440Z,43.75
2018-12-17T03:17:12.360Z,55.35
2018-12-17T03:19:40.279Z,53.28
2018-12-17T03:22:08.196Z,56.35
2018-12-17T03:24:36.088Z,46.60
2018-12-17T03:27:04.014Z,52.33
2018-12-17T03:29:32.005Z,48.55
2018-12-17T03:31:59.964Z,49.33
2018-12-17T03:34:27.898Z,42.10
2018-12-17T03:36:55.846Z,57.13
2018-12-17T03:39:23.761Z,47.00
2018-12-17T03:41:51.729Z,39.45
2018-12-17T03:44:19.662Z,47.08
2018-12-17T03:46:47.566Z,54.10
2018-12-17T03:49:15.510Z,63.75
2018-12-17T03:51:43.417Z,56.73
2018-12-17T03:54:11.324Z,49.55
2018-12-17T03:56:39.278Z,53.95
2018-12-17T03:59:07.209Z,56.28
2018-12-17T04:01:35.113Z,50.17
2018-12-17T04:04:03.041Z,48.68
2018-12-17T04:06:30.953Z,49.90
2018-12-17T04:08:58.844Z,43.33
2018-12-17T04:11:26.836Z,49.77
2018-12-17T04:13:54.749Z,48.25
2018-12-17T04:16:22.698Z,46.15
2018-12-17T04:18:50.656Z,44.88
2018-12-17T04:21:18.564Z,42.23
2018-12-17T04:23:46.465Z,40.52
2018-12-17T04:26:16.460Z,42.83
2018-12-17T04:28:44.397Z,35.28
2018-12-17T04:31:12.292Z,41.15
2018-12-17T04:33:41.261Z,43.78
2018-12-17T04:36:09.189Z,46.60
2018-12-17T04:38:37.079Z,48.52
2018-12-17T04:41:05.035Z,42.67
2018-12-17T04:43:33.045Z,48.13
2018-12-17T04:46:00.965Z,41.80
2018-12-17T04:48:28.891Z,45.20
2018-12-17T04:50:56.800Z,44.80
2018-12-17T04:53:24.725Z,43.48
2018-12-17T04:55:52.639Z,44.30
2018-12-17T04:58:20.556Z,46.70
2018-12-17T05:00:49.613Z,45.55
2018-12-17T05:03:17.575Z,48.28
2018-12-17T05:05:45.642Z,49.67
2018-12-17T05:08:13.593Z,50.10
2018-12-17T05:10:41.539Z,50.48
2018-12-17T05:13:09.470Z,43.42
2018-12-17T05:15:38.047Z,46.83
2018-12-17T05:18:05.982Z,50.90
2018-12-17T05:20:33.904Z,52.90
2018-12-17T05:23:01.885Z,50.45
2018-12-17T05:25:29.828Z,46.75
2018-12-17T05:27:57.736Z,51.77
2018-12-17T05:30:25.664Z,44.35
2018-12-17T05:32:53.667Z,47.05
2018-12-17T05:35:21.585Z,46.83
2018-12-17T05:37:51.594Z,39.73
2018-12-17T05:40:19.519Z,44.95
2018-12-17T05:42:47.429Z,47.98
2018-12-17T05:45:15.402Z,41.33
2018-12-17T05:47:43.349Z,55.05
2018-12-17T05:50:11.316Z,57.00
2018-12-17T05:52:39.263Z,51.55
2018-12-17T05:55:07.185Z,48.90
2018-12-17T05:57:35.100Z,56.90
2018-12-17T06:00:03.408Z,45.25
2018-12-17T06:02:31.342Z,45.90
2018-12-17T06:04:59.286Z,39.38
2018-12-17T06:07:27.259Z,50.25
2018-12-17T06:09:55.206Z,47.17
2018-12-17T06:12:23.153Z,52.88
2018-12-17T06:14:51.066Z,47.88
2018-12-17T06:17:18.991Z,41.02
2018-12-17T06:19:46.933Z,39.70
2018-12-17T06:22:14.868Z,38.53
2018-12-17T06:24:42.820Z,45.52
2018-12-17T06:27:10.748Z,49.63
2018-12-17T06:29:38.694Z,44.77
2018-12-17T06:32:06.653Z,43.00
2018-12-17T06:34:34.614Z,34.50
2018-12-17T06:37:02.542Z,33.92
2018-12-17T06:39:30.436Z,31.20
2018-12-17T06:41:58.391Z,40.52
2018-12-17T06:44:26.381Z,36.05
2018-12-17T06:46:54.395Z,39.15
2018-12-17T06:49:22.339Z,42.10
2018-12-17T06:51:50.805Z,31.75
2018-12-17T06:54:18.758Z,32.83
2018-12-17T06:56:46.691Z,33.73
2018-12-17T06:59:14.638Z,41.42
2018-12-17T07:01:42.585Z,35.65
2018-12-17T07:04:10.524Z,35.08
2018-12-17T07:06:38.437Z,38.45
2018-12-17T07:09:06.424Z,35.23
2018-12-17T07:11:35.477Z,32.28
2018-12-17T07:14:03.439Z,36.05
2018-12-17T07:16:31.372Z,51.83
2018-12-17T07:18:59.321Z,65.85
2018-12-17T07:21:27.297Z,55.45
2018-12-17T07:23:58.845Z,50.88
2018-12-17T07:26:25.264Z,66.15
2018-12-17T07:28:53.301Z,67.08
2018-12-17T07:31:21.241Z,73.70
2018-12-17T07:33:49.216Z,71.77
2018-12-17T07:36:17.323Z,64.90
2018-12-17T07:38:45.266Z,61.02
2018-12-17T07:41:13.191Z,55.40
2018-12-17T07:43:41.402Z,56.18
2018-12-17T07:46:09.417Z,60.30
2018-12-17T07:48:37.463Z,60.05
2018-12-17T07:51:05.399Z,54.50
2018-12-17T07:53:33.361Z,56.20
2018-12-17T07:56:01.276Z,55.12
2018-12-17T07:58:30.162Z,50.15
2018-12-17T08:00:58.119Z,55.50
2018-12-17T08:03:26.039Z,48.00
2018-12-17T08:05:54.017Z,54.15
2018-12-17T08:08:21.974Z,48.68
2018-12-17T08:10:49.905Z,49.08
2018-12-17T08:13:17.911Z,51.13
2018-12-17T08:15:45.947Z,42.58
2018-12-17T08:18:19.473Z,47.95
2018-12-17T08:20:47.525Z,44.27
2018-12-17T08:23:15.500Z,43.38
2018-12-17T08:25:43.532Z,44.35
2018-12-17T08:28:11.522Z,45.30
2018-12-17T08:30:39.498Z,40.03
2018-12-17T08:33:07.579Z,49.80
2018-12-17T08:35:35.604Z,49.43
2018-12-17T08:38:03.609Z,46.20
2018-12-17T08:40:31.572Z,44.77
2018-12-17T08:42:59.670Z,48.80
2018-12-17T08:45:27.613Z,50.70
2018-12-17T08:47:55.549Z,43.60
2018-12-17T08:50:23.485Z,44.15
2018-12-17T08:52:51.522Z,44.45
2018-12-17T08:55:19.445Z,48.57
2018-12-17T08:57:47.469Z,52.33
2018-12-17T09:00:15.479Z,43.92
2018-12-17T09:02:43.442Z,42.85
2018-12-17T09:05:11.608Z,45.88
2018-12-17T09:07:39.509Z,52.15
2018-12-17T09:10:07.812Z,57.78
2018-12-17T09:12:35.798Z,48.70
2018-12-17T09:15:04.505Z,53.20
2018-12-17T09:17:32.422Z,56.45
2018-12-17T09:20:00.416Z,44.95
2018-12-17T09:22:28.381Z,66.55
2018-12-17T09:24:56.477Z,45.43
2018-12-17T09:27:24.449Z,50.50
2018-12-17T09:29:52.400Z,47.77
2018-12-17T09:32:20.341Z,51.53
2018-12-17T09:34:48.312Z,50.47
2018-12-17T09:37:23.092Z,44.77
2018-12-17T09:39:51.120Z,45.87
2018-12-17T09:42:19.058Z,46.87
2018-12-17T09:44:46.995Z,42.13
2018-12-17T09:47:15.049Z,49.30
2018-12-17T09:49:42.965Z,40.30
2018-12-17T09:52:10.885Z,47.53
2018-12-17T09:54:38.903Z,36.37
2018-12-17T09:57:06.898Z,38.90
2018-12-17T09:59:34.880Z,36.20
2018-12-17T10:02:02.913Z,46.20
2018-12-17T10:04:30.847Z,36.40
2018-12-17T10:06:58.778Z,40.10
2018-12-17T10:09:26.771Z,36.43
2018-12-17T10:11:54.700Z,39.17
2018-12-17T10:14:22.637Z,36.40
2018-12-17T10:16:50.609Z,40.47
2018-12-17T10:19:18.544Z,35.87
2018-12-17T10:21:46.499Z,41.13
2018-12-17T10:24:15.577Z,39.60
2018-12-17T10:26:43.490Z,39.40
2018-12-17T10:29:11.442Z,33.27
2018-12-17T10:31:39.437Z,38.10
2018-12-17T10:34:07.375Z,37.67
2018-12-17T10:36:35.325Z,35.57
2018-12-17T10:39:04.727Z,38.50
2018-12-17T10:41:32.787Z,40.57
2018-12-17T10:44:02.769Z,35.73
2018-12-17T10:46:30.897Z,32.97
2018-12-17T10:48:58.919Z,41.77
2018-12-17T10:51:26.914Z,36.03
2018-12-17T10:53:54.978Z,44.13
2018-12-17T10:56:23.143Z,36.87
2018-12-17T10:58:51.227Z,40.33
2018-12-17T11:01:24.682Z,37.47
2018-12-17T11:03:58.060Z,44.73
2018-12-17T11:06:26.055Z,38.87
2018-12-17T11:08:53.981Z,42.47
2018-12-17T11:11:21.962Z,41.87
2018-12-17T11:13:49.953Z,40.27
2018-12-17T11:16:17.939Z,38.00
2018-12-17T11:18:45.943Z,39.23
2018-12-17T11:21:14.023Z,40.20
2018-12-17T11:23:42.120Z,39.73
2018-12-17T11:26:10.224Z,53.83
2018-12-17T11:28:38.206Z,49.93
2018-12-17T11:31:06.173Z,54.03
2018-12-17T11:33:34.254Z,49.87
2018-12-17T11:36:02.331Z,48.27
2018-12-17T11:38:30.387Z,47.27
2018-12-17T11:40:58.384Z,48.47
2018-12-17T11:43:26.327Z,44.80
2018-12-17T11:45:54.501Z,43.83
2018-12-17T11:48:22.724Z,53.60
2018-12-17T11:50:50.701Z,48.60
2018-12-17T11:53:18.631Z,59.57
2018-12-17T11:55:46.698Z,46.15
2018-12-17T11:58:15.926Z,37.25
2018-12-17T12:00:54.008Z,41.50
2018-12-17T12:03:22.825Z,49.80
2018-12-17T12:05:50.870Z,51.63
2018-12-17T12:08:18.998Z,43.10
2018-12-17T12:10:46.957Z,52.63
2018-12-17T12:13:16.132Z,49.00
2018-12-17T12:15:44.050Z,54.73
2018-12-17T12:18:12.002Z,38.73
2018-12-17T12:20:39.933Z,49.98
2018-12-17T12:23:07.898Z,49.70
2018-12-17T12:25:35.863Z,58.85
2018-12-17T12:28:03.798Z,46.02
2018-12-17T12:30:31.834Z,45.90
2018-12-17T12:32:59.784Z,49.23
2018-12-17T12:35:27.757Z,54.35
2018-12-17T12:37:55.669Z,52.73
2018-12-17T12:40:23.686Z,51.23
2018-12-17T12:42:52.053Z,48.33
2018-12-17T12:45:20.155Z,43.17
2018-12-17T12:47:48.114Z,50.85
2018-12-17T12:50:16.063Z,54.25
2018-12-17T12:52:44.168Z,46.50
2018-12-17T12:55:12.184Z,47.10
2018-12-17T12:57:40.212Z,44.40
2018-12-17T13:00:11.272Z,40.67
2018-12-17T13:02:40.364Z,41.75
2018-12-17T13:05:08.469Z,37.50
2018-12-17T13:07:36.452Z,34.27
2018-12-17T13:10:06.643Z,36.00
2018-12-17T13:12:34.688Z,40.15
2018-12-17T13:15:02.823Z,45.73
2018-12-17T13:17:30.814Z,44.45
2018-12-17T13:19:58.765Z,44.38
2018-12-17T13:22:26.728Z,41.58
2018-12-17T13:24:54.743Z,42.78
2018-12-17T13:27:22.733Z,40.60
2018-12-17T13:29:50.726Z,44.15
2018-12-17T13:32:18.721Z,39.53
2018-12-17T13:34:46.695Z,56.35
2018-12-17T13:37:14.654Z,40.63
2018-12-17T13:39:42.568Z,38.50
2018-12-17T13:42:10.497Z,33.50
2018-12-17T13:44:38.455Z,34.25
2018-12-17T13:47:06.458Z,47.20
2018-12-17T13:49:34.388Z,43.85
2018-12-17T13:52:07.950Z,42.78
2018-12-17T13:54:35.935Z,36.80
2018-12-17T13:57:03.863Z,48.10
2018-12-17T13:59:31.825Z,38.85
2018-12-17T14:01:59.842Z,40.95
2018-12-17T14:04:27.798Z,43.42
2018-12-17T14:06:55.768Z,38.85
2018-12-17T14:09:25.834Z,43.50
2018-12-17T14:11:54.021Z,46.63
2018-12-17T14:14:21.926Z,43.28
2018-12-17T14:16:55.528Z,51.08
2018-12-17T14:19:25.427Z,42.40
2018-12-17T14:21:57.450Z,32.93
2018-12-17T14:24:25.374Z,40.25
2018-12-17T14:26:53.378Z,49.18
2018-12-17T14:29:21.407Z,56.77
2018-12-17T14:31:49.357Z,42.93
2018-12-17T14:34:17.287Z,48.55
2018-12-17T14:36:45.408Z,44.60
2018-12-17T14:39:13.387Z,49.10
2018-12-17T14:41:41.443Z,47.10
2018-12-17T14:44:15.001Z,44.50
2018-12-17T14:46:48.362Z,51.40
2018-12-17T14:49:16.352Z,58.00
2018-12-17T14:51:44.377Z,52.43
2018-12-17T14:54:12.302Z,51.55
2018-12-17T14:56:40.276Z,49.50
2018-12-17T14:59:08.197Z,50.88
2018-12-17T15:01:36.227Z,57.58
2018-12-17T15:04:04.313Z,48.23
2018-12-17T15:06:32.339Z,57.35
2018-12-17T15:09:00.332Z,51.00
2018-12-17T15:11:28.338Z,38.75
2018-12-17T15:13:56.382Z,57.05
2018-12-17T15:16:24.383Z,61.85
2018-12-17T15:18:52.390Z,59.45
2018-12-17T15:21:20.411Z,44.13
2018-12-17T15:23:48.359Z,53.52
2018-12-17T15:26:16.304Z,56.28
2018-12-17T15:28:44.307Z,47.78
2018-12-17T15:31:12.268Z,54.00
2018-12-17T15:33:40.307Z,54.67
2018-12-17T15:36:08.237Z,45.73
2018-12-17T15:38:36.258Z,45.23
2018-12-17T15:41:04.201Z,47.48
2018-12-17T15:43:32.188Z,43.17
2018-12-17T15:46:00.130Z,58.13
2018-12-17T15:48:28.070Z,51.90
2018-12-17T15:50:56.049Z,54.90
2018-12-17T15:53:23.980Z,49.27
2018-12-17T15:55:51.947Z,59.95
2018-12-17T15:58:19.993Z,51.40
2018-12-17T16:00:47.904Z,66.57
2018-12-17T16:03:15.843Z,60.48
2018-12-17T16:05:43.853Z,48.40
2018-12-17T16:08:11.770Z,90.10
2018-12-17T16:10:39.704Z,74.58
2018-12-17T16:13:07.671Z,55.52
2018-12-17T16:15:35.630Z,61.45
2018-12-17T16:18:03.657Z,67.72
2018-12-17T16:20:31.680Z,55.80
2018-12-17T16:22:59.636Z,61.53
2018-12-17T16:25:27.588Z,50.45
2018-12-17T16:27:55.554Z,63.28
2018-12-17T16:30:23.538Z,63.95
2018-12-17T16:32:51.511Z,62.15
2018-12-17T16:35:19.531Z,63.75
2018-12-17T16:37:47.626Z,54.48
2018-12-17T16:40:15.826Z,64.00
2018-12-17T16:42:43.814Z,65.60
2018-12-17T16:45:12.510Z,70.75
2018-12-17T16:47:40.462Z,69.82
2018-12-17T16:50:09.653Z,74.58
2018-12-17T16:52:37.798Z,60.20
2018-12-17T16:55:05.773Z,69.15
2018-12-17T16:57:33.750Z,55.75
2018-12-17T17:00:01.656Z,74.62
2018-12-17T17:02:30.821Z,71.00
2018-12-17T17:04:58.840Z,70.15
2018-12-17T17:07:26.789Z,65.05
2018-12-17T17:09:56.872Z,67.92
2018-12-17T17:12:24.814Z,76.60
2018-12-17T17:14:52.769Z,65.35
2018-12-17T17:17:20.709Z,89.40
2018-12-17T17:19:51.006Z,81.05
2018-12-17T17:22:18.625Z,68.17
2018-12-17T17:24:46.552Z,77.32
2018-12-17T17:27:14.501Z,64.72
2018-12-17T17:29:42.531Z,75.00
2018-12-17T17:32:11.835Z,68.07
2018-12-17T17:34:40.084Z,74.75
2018-12-17T17:37:08.015Z,70.40
2018-12-17T17:39:35.954Z,62.43
2018-12-17T17:42:03.996Z,68.12
2018-12-17T17:44:32.003Z,84.15
2018-12-17T17:46:59.999Z,71.72
2018-12-17T17:49:27.983Z,63.38
2018-12-17T17:51:56.014Z,62.43
2018-12-17T17:54:24.327Z,76.72
2018-12-17T17:56:52.356Z,63.52
2018-12-17T17:59:20.305Z,61.00
2018-12-17T18:01:48.341Z,76.20
2018-12-17T18:04:16.396Z,62.08
2018-12-17T18:06:44.406Z,87.27
2018-12-17T18:09:12.361Z,80.38
2018-12-17T18:11:40.379Z,74.22
2018-12-17T18:14:08.435Z,83.03
2018-12-17T18:16:36.468Z,83.47
2018-12-17T18:19:04.478Z,69.77
2018-12-17T18:21:32.480Z,65.75
2018-12-17T18:24:00.460Z,62.33
2018-12-17T18:26:28.505Z,59.18
2018-12-17T18:28:56.458Z,70.32
2018-12-17T18:31:24.517Z,62.30
2018-12-17T18:33:52.548Z,63.00
2018-12-17T18:36:20.518Z,53.95
2018-12-17T18:38:49.698Z,55.70
2018-12-17T18:41:17.694Z,51.20
2018-12-17T18:43:45.650Z,50.23
2018-12-17T18:46:13.651Z,54.18
2018-12-17T18:48:41.617Z,56.25
2018-12-17T18:51:09.563Z,62.05
2018-12-17T18:53:37.598Z,51.73
2018-12-17T18:56:05.564Z,58.23
2018-12-17T18:58:35.067Z,62.58
2018-12-17T19:01:03.415Z,54.50
2018-12-17T19:03:32.796Z,54.00
2018-12-17T19:06:00.804Z,56.70
2018-12-17T19:08:28.772Z,60.38
2018-12-17T19:10:56.748Z,70.87
2018-12-17T19:13:24.770Z,59.48
2018-12-17T19:15:52.753Z,58.75
2018-12-17T19:18:20.817Z,50.12
2018-12-17T19:20:48.770Z,61.42
2018-12-17T19:23:16.772Z,63.17
2018-12-17T19:25:44.733Z,55.95
2018-12-17T19:28:13.584Z,50.58
2018-12-17T19:30:41.647Z,48.33
2018-12-17T19:33:09.578Z,50.35
2018-12-17T19:35:37.609Z,57.75
2018-12-17T19:38:05.724Z,53.83
2018-12-17T19:40:33.771Z,53.58
2018-12-17T19:43:01.759Z,54.83
2018-12-17T19:45:29.911Z,57.20
2018-12-17T19:47:58.466Z,52.35
2018-12-17T19:50:26.563Z,47.35
2018-12-17T19:52:55.763Z,51.05
2018-12-17T19:55:23.971Z,52.58
2018-12-17T19:57:52.013Z,50.95
2018-12-17T20:00:20.061Z,58.15
2018-12-17T20:02:48.063Z,51.58
2018-12-17T20:05:16.076Z,56.15
2018-12-17T20:07:44.222Z,57.62
2018-12-17T20:10:17.548Z,65.67
2018-12-17T20:12:45.578Z,54.50
2018-12-17T20:15:13.615Z,62.13
2018-12-17T20:17:41.583Z,53.73
2018-12-17T20:20:09.650Z,55.52
2018-12-17T20:22:37.597Z,53.83
2018-12-17T20:25:05.569Z,49.53
2018-12-17T20:27:33.599Z,58.75
2018-12-17T20:30:01.612Z,52.27
2018-12-17T20:32:29.633Z,58.83
2018-12-17T20:34:57.625Z,62.80
2018-12-17T20:37:25.582Z,63.65
2018-12-17T20:39:53.578Z,55.03
2018-12-17T20:42:21.688Z,55.75
2018-12-17T20:44:49.625Z,46.55
2018-12-17T20:47:17.571Z,49.75
2018-12-17T20:49:45.952Z,55.98
2018-12-17T20:52:13.914Z,55.95
2018-12-17T20:54:41.954Z,51.42
2018-12-17T20:57:12.817Z,45.20
2018-12-17T20:59:40.830Z,51.02
2018-12-17T21:02:08.825Z,50.12
2018-12-17T21:04:36.814Z,53.50
2018-12-17T21:07:04.819Z,63.23
2018-12-17T21:09:32.808Z,61.08
2018-12-17T21:12:00.878Z,53.68
2018-12-17T21:14:28.942Z,59.83
2018-12-17T21:16:56.943Z,66.25
2018-12-17T21:19:24.964Z,53.08
2018-12-17T21:21:52.950Z,57.78
2018-12-17T21:24:20.908Z,55.83
2018-12-17T21:26:48.904Z,51.85
2018-12-17T21:29:16.856Z,50.83
2018-12-17T21:31:45.033Z,44.23
2018-12-17T21:34:13.034Z,54.00
2018-12-17T21:36:41.087Z,45.43
2018-12-17T21:39:09.106Z,49.15
2018-12-17T21:41:37.095Z,46.83
2018-12-17T21:44:05.095Z,54.85
2018-12-17T21:46:34.041Z,46.55
2018-12-17T21:49:02.154Z,53.48
2018-12-17T21:51:30.233Z,50.00
2018-12-17T21:53:58.298Z,51.30
2018-12-17T21:56:26.257Z,47.83
2018-12-17T21:58:54.240Z,51.88
2018-12-17T22:01:22.279Z,54.95
2018-12-17T22:03:50.327Z,52.83
2018-12-17T22:06:18.326Z,48.55
2018-12-17T22:08:46.295Z,55.85
2018-12-17T22:11:14.238Z,45.88
2018-12-17T22:13:42.188Z,48.98
2018-12-17T22:16:10.214Z,55.78
2018-12-17T22:18:38.193Z,54.38
2018-12-17T22:21:06.167Z,49.40
2018-12-17T22:23:34.246Z,53.75
2018-12-17T22:26:02.243Z,51.75
2018-12-17T22:28:30.231Z,53.25
2018-12-17T22:30:58.227Z,52.35
2018-12-17T22:33:26.170Z,54.08
2018-12-17T22:35:54.143Z,57.43
2018-12-17T22:38:22.607Z,51.02
2018-12-17T22:40:50.599Z,46.58
2018-12-17T22:43:18.621Z,51.85
2018-12-17T22:45:46.558Z,50.25
2018-12-17T22:48:14.548Z,59.05
2018-12-17T22:50:42.506Z,61.80
2018-12-17T22:53:10.468Z,51.80
2018-12-17T22:55:38.438Z,59.70
2018-12-17T22:58:07.468Z,53.87
2018-12-17T23:00:35.441Z,57.53
2018-12-17T23:03:05.439Z,46.98
2018-12-17T23:05:33.738Z,55.88
2018-12-17T23:08:01.722Z,57.17
2018-12-17T23:10:40.920Z,53.15
2018-12-17T23:13:14.536Z,54.50
2018-12-17T23:15:48.030Z,48.58
2018-12-17T23:18:15.414Z,48.50
2018-12-17T23:20:43.443Z,47.35
2018-12-17T23:23:13.421Z,54.20
2018-12-17T23:25:41.407Z,54.20
2018-12-17T23:28:09.434Z,49.77
2018-12-17T23:30:37.486Z,50.35
2018-12-17T23:33:05.491Z,53.92
2018-12-17T23:35:33.438Z,58.65
2018-12-17T23:38:01.378Z,58.63
2018-12-17T23:40:29.359Z,52.05
2018-12-17T23:42:57.320Z,57.35
2018-12-17T23:45:25.270Z,48.50
2018-12-17T23:47:53.271Z,49.15
2018-12-17T23:50:21.241Z,57.43
2018-12-17T23:52:49.182Z,56.88
2018-12-17T23:55:17.130Z,57.35
2018-12-17T23:57:45.115Z,53.92
